Time;durP1;ratioP1;P1;durP2;ratioP2;P2;SDS_P1;SDS_P2;PMS_P1;PMS_P2;Temp;Humidity;BMP_temperature;BMP_pressure;BME280_temperature;BME280_humidity;BME280_pressure;Samples;Min_cycle;Max_cycle;Signal;HPM_P1;HPM_P2
2021/03/24 00:00:49;;;;;;;58.72;35.67;;;;;;;;;;5121381;27;20087;-78
2021/03/24 00:03:36;;;;;;;60.47;36.17;;;;;;;;;;5119607;27;20214;-77
2021/03/24 00:06:22;;;;;;;59.72;36.45;;;;;;;;;;5122537;27;20088;-78
2021/03/24 00:09:10;;;;;;;61.47;38.20;;;;;;;;;;5122542;27;20047;-79
2021/03/24 00:11:56;;;;;;;60.28;36.88;;;;;;;;;;5131003;27;20449;-77
2021/03/24 00:14:44;;;;;;;60.35;37.90;;;;;;;;;;5119904;27;20434;-83
2021/03/24 00:17:30;;;;;;;64.45;39.60;;;;;;;;;;5116688;27;20047;-85
2021/03/24 00:20:18;;;;;;;59.97;39.30;;;;;;;;;;5123083;27;20054;-82
2021/03/24 00:23:04;;;;;;;60.75;39.25;;;;;;;;;;5129181;27;20039;-82
2021/03/24 00:25:51;;;;;;;65.65;40.35;;;;;;;;;;5127749;27;20377;-81
2021/03/24 00:28:37;;;;;;;66.65;39.63;;;;;;;;;;5112463;27;20127;-81
2021/03/24 00:31:23;;;;;;;72.05;42.55;;;;;;;;;;5096715;27;20047;-82
2021/03/24 00:34:09;;;;;;;68.88;42.40;;;;;;;;;;5133080;27;20104;-82
2021/03/24 00:36:55;;;;;;;63.85;41.97;;;;;;;;;;5139013;27;20047;-83
2021/03/24 00:39:41;;;;;;;69.20;42.00;;;;;;;;;;5123291;27;20043;-82
2021/03/24 00:42:27;;;;;;;66.75;41.78;;;;;;;;;;5121432;27;20425;-84
2021/03/24 00:45:14;;;;;;;66.22;42.03;;;;;;;;;;5120014;27;20038;-83
2021/03/24 00:48:00;;;;;;;69.18;42.40;;;;;;;;;;5134289;27;20043;-84
2021/03/24 00:50:47;;;;;;;67.85;41.88;;;;;;;;;;5109233;27;20371;-83
2021/03/24 00:53:33;;;;;;;72.30;42.10;;;;;;;;;;5134262;27;20084;-82
2021/03/24 00:56:19;;;;;;;71.90;42.83;;;;;;;;;;5133711;27;20386;-83
2021/03/24 00:59:05;;;;;;;68.07;42.85;;;;;;;;;;5134127;27;20054;-84
2021/03/24 01:01:51;;;;;;;73.55;44.47;;;;;;;;;;5117177;27;20051;-83
2021/03/24 01:04:38;;;;;;;70.35;43.40;;;;;;;;;;5128127;27;20047;-84
2021/03/24 01:07:24;;;;;;;73.55;43.80;;;;;;;;;;5115442;27;20065;-83
2021/03/24 01:10:23;;;;;;;70.40;41.28;;;;;;;;;;5117276;27;20043;-85
2021/03/24 01:13:11;;;;;;;70.63;42.72;;;;;;;;;;5125191;27;20051;-83
2021/03/24 01:15:58;;;;;;;73.20;43.72;;;;;;;;;;5117060;27;20180;-83
2021/03/24 01:18:44;;;;;;;68.97;43.50;;;;;;;;;;5114614;27;20478;-82
2021/03/24 01:21:30;;;;;;;69.88;44.50;;;;;;;;;;5128714;27;20051;-84
2021/03/24 01:24:16;;;;;;;79.70;43.80;;;;;;;;;;5129290;27;20035;-82
2021/03/24 01:27:02;;;;;;;76.97;43.05;;;;;;;;;;5096692;27;20073;-82
2021/03/24 01:29:48;;;;;;;69.70;43.67;;;;;;;;;;5132394;27;20066;-81
2021/03/24 01:32:34;;;;;;;79.80;45.45;;;;;;;;;;5132979;27;20051;-82
2021/03/24 01:35:21;;;;;;;79.93;47.00;;;;;;;;;;5114256;27;20039;-85
2021/03/24 01:38:08;;;;;;;78.10;45.65;;;;;;;;;;5128375;27;20050;-83
2021/03/24 01:40:56;;;;;;;74.43;45.88;;;;;;;;;;5116931;28;20505;-83
2021/03/24 01:43:42;;;;;;;77.93;47.38;;;;;;;;;;5129794;27;20050;-85
2021/03/24 01:46:31;;;;;;;78.43;45.92;;;;;;;;;;5127515;27;20170;-81
2021/03/24 01:49:20;;;;;;;84.80;46.63;;;;;;;;;;5128212;27;20043;-83
2021/03/24 01:52:07;;;;;;;80.18;46.25;;;;;;;;;;5127714;27;20070;-84
2021/03/24 01:54:54;;;;;;;87.50;46.78;;;;;;;;;;5127451;27;20413;-83
2021/03/24 01:57:44;;;;;;;83.97;47.40;;;;;;;;;;5130071;27;20043;-83
2021/03/24 02:00:34;;;;;;;88.03;45.72;;;;;;;;;;5128811;27;20047;-84
2021/03/24 02:03:22;;;;;;;80.70;46.28;;;;;;;;;;5117568;27;20096;-83
2021/03/24 02:06:21;;;;;;;83.03;47.38;;;;;;;;;;5134468;27;20039;-83
2021/03/24 02:09:07;;;;;;;80.40;45.70;;;;;;;;;;5119184;27;20438;-83
2021/03/24 02:11:57;;;;;;;79.57;47.25;;;;;;;;;;5117004;27;20053;-83
2021/03/24 02:15:02;;;;;;;76.53;46.15;;;;;;;;;;5118258;27;20082;-83
2021/03/24 02:17:48;;;;;;;84.47;47.25;;;;;;;;;;5119676;27;20055;-83
2021/03/24 02:20:36;;;;;;;80.55;47.80;;;;;;;;;;5119561;27;20050;-83
2021/03/24 02:23:41;;;;;;;84.53;46.72;;;;;;;;;;5118597;27;20487;-83
2021/03/24 02:26:39;;;;;;;83.65;48.75;;;;;;;;;;5131809;27;20135;-83
2021/03/24 02:29:25;;;;;;;85.30;44.63;;;;;;;;;;5113590;27;20052;-84
2021/03/24 02:32:12;;;;;;;80.72;46.40;;;;;;;;;;5119778;27;20073;-82
2021/03/24 02:35:05;;;;;;;88.05;49.30;;;;;;;;;;5130022;27;20486;-85
2021/03/24 02:37:52;;;;;;;84.55;48.85;;;;;;;;;;5131026;27;20047;-84
2021/03/24 02:40:40;;;;;;;92.82;48.45;;;;;;;;;;5132966;27;20066;-83
2021/03/24 02:43:26;;;;;;;88.82;47.97;;;;;;;;;;5131269;27;20485;-84
2021/03/24 02:46:14;;;;;;;81.15;48.17;;;;;;;;;;5117216;27;20043;-84
2021/03/24 02:49:02;;;;;;;80.70;46.70;;;;;;;;;;5133343;27;20474;-82
2021/03/24 02:51:48;;;;;;;80.85;49.83;;;;;;;;;;5116124;27;20039;-83
2021/03/24 02:54:35;;;;;;;89.78;50.75;;;;;;;;;;5117212;27;20052;-84
2021/03/24 02:57:21;;;;;;;85.47;48.45;;;;;;;;;;5133172;27;20469;-84
2021/03/24 03:00:10;;;;;;;88.82;50.17;;;;;;;;;;5118832;27;20081;-83
2021/03/24 03:02:58;;;;;;;86.93;49.97;;;;;;;;;;5111289;27;20082;-84
2021/03/24 03:05:45;;;;;;;85.38;49.78;;;;;;;;;;5132661;27;20039;-83
2021/03/24 03:08:34;;;;;;;88.57;51.38;;;;;;;;;;5119267;27;20062;-84
2021/03/24 03:11:24;;;;;;;85.00;48.97;;;;;;;;;;5131411;27;20141;-83
2021/03/24 03:14:14;;;;;;;84.38;48.88;;;;;;;;;;5132708;27;20043;-83
2021/03/24 03:17:04;;;;;;;87.35;49.45;;;;;;;;;;5132281;27;20121;-83
2021/03/24 03:20:05;;;;;;;88.20;49.72;;;;;;;;;;5115401;27;20546;-82
2021/03/24 03:22:56;;;;;;;90.00;52.80;;;;;;;;;;5132646;27;20378;-83
2021/03/24 03:25:46;;;;;;;94.20;51.33;;;;;;;;;;5131225;27;20367;-83
2021/03/24 03:28:35;;;;;;;87.18;49.50;;;;;;;;;;5114864;27;20103;-83
2021/03/24 03:31:26;;;;;;;85.53;48.58;;;;;;;;;;5117647;27;20479;-83
2021/03/24 03:34:14;;;;;;;86.55;51.15;;;;;;;;;;5128303;27;20466;-84
2021/03/24 03:37:01;;;;;;;97.00;51.40;;;;;;;;;;5127944;27;20273;-85
2021/03/24 03:39:47;;;;;;;90.50;50.70;;;;;;;;;;5117751;27;20484;-83
2021/03/24 03:42:33;;;;;;;91.75;50.95;;;;;;;;;;5132482;27;20505;-84
2021/03/24 03:45:20;;;;;;;90.40;50.08;;;;;;;;;;5128796;27;20407;-84
2021/03/24 03:48:08;;;;;;;86.80;50.42;;;;;;;;;;5118432;27;20142;-86
2021/03/24 03:50:57;;;;;;;91.13;49.33;;;;;;;;;;5117856;27;20051;-85
2021/03/24 03:53:48;;;;;;;90.35;50.17;;;;;;;;;;5116197;27;20045;-84
2021/03/24 03:56:50;;;;;;;94.60;50.85;;;;;;;;;;5117058;27;20047;-86
2021/03/24 03:59:36;;;;;;;95.35;52.42;;;;;;;;;;5132014;27;20434;-86
2021/03/24 04:02:26;;;;;;;91.55;50.33;;;;;;;;;;5116667;27;20092;-85
2021/03/24 04:05:16;;;;;;;90.75;51.60;;;;;;;;;;5129449;27;20039;-85
2021/03/24 04:08:04;;;;;;;97.93;52.28;;;;;;;;;;5131791;27;20081;-84
2021/03/24 04:10:56;;;;;;;94.28;52.30;;;;;;;;;;5129113;27;20057;-84
2021/03/24 04:13:44;;;;;;;102.55;53.30;;;;;;;;;;5114960;27;20423;-85
2021/03/24 04:16:31;;;;;;;101.82;52.42;;;;;;;;;;5129769;27;20083;-84
2021/03/24 04:19:18;;;;;;;98.15;50.17;;;;;;;;;;5116910;27;20088;-83
2021/03/24 04:22:05;;;;;;;105.80;54.53;;;;;;;;;;5129162;27;20660;-84
2021/03/24 04:24:52;;;;;;;102.38;53.92;;;;;;;;;;5129802;27;20073;-83
2021/03/24 04:27:39;;;;;;;102.10;53.65;;;;;;;;;;5129395;27;20059;-83
2021/03/24 04:30:31;;;;;;;112.65;56.90;;;;;;;;;;5108280;27;20045;-84
2021/03/24 04:33:17;;;;;;;112.40;55.00;;;;;;;;;;5117902;27;20085;-84
2021/03/24 04:36:10;;;;;;;113.18;57.10;;;;;;;;;;5134015;27;20096;-85
2021/03/24 04:38:58;;;;;;;109.28;55.70;;;;;;;;;;5126505;27;20428;-84
2021/03/24 04:41:45;;;;;;;111.63;58.03;;;;;;;;;;5130505;27;20078;-84
2021/03/24 04:44:33;;;;;;;119.00;57.75;;;;;;;;;;5117140;27;20089;-84
2021/03/24 04:47:25;;;;;;;120.22;58.80;;;;;;;;;;5131549;27;20046;-85
2021/03/24 04:50:22;;;;;;;115.88;56.63;;;;;;;;;;5115475;27;20523;-85
2021/03/24 04:53:10;;;;;;;118.05;57.17;;;;;;;;;;5128048;27;20047;-86
2021/03/24 04:55:57;;;;;;;119.95;59.53;;;;;;;;;;5130023;27;20054;-85
2021/03/24 04:58:44;;;;;;;125.05;59.85;;;;;;;;;;5125157;27;20051;-85
2021/03/24 05:01:31;;;;;;;121.72;58.42;;;;;;;;;;5122416;27;20430;-85
2021/03/24 05:04:17;;;;;;;122.57;59.17;;;;;;;;;;5113364;27;20036;-85
2021/03/24 05:07:22;;;;;;;118.72;58.75;;;;;;;;;;5115067;27;20390;-85
2021/03/24 05:10:08;;;;;;;;;;;;;;;;;;5117071;27;20042;-85
2021/03/24 05:12:57;;;;;;;126.45;57.75;;;;;;;;;;5129087;27;19919;-85
2021/03/24 05:15:45;;;;;;;121.95;57.15;;;;;;;;;;5131270;27;20061;-86
2021/03/24 05:18:32;;;;;;;124.22;60.63;;;;;;;;;;5114315;27;20047;-84
2021/03/24 05:21:27;;;;;;;131.18;63.75;;;;;;;;;;5128961;27;20062;-82
2021/03/24 05:24:14;;;;;;;129.63;61.30;;;;;;;;;;5109968;27;20038;-83
2021/03/24 05:27:06;;;;;;;143.98;63.88;;;;;;;;;;5128809;27;20050;-83
2021/03/24 05:29:56;;;;;;;128.00;61.33;;;;;;;;;;5131503;27;20106;-82
2021/03/24 05:32:44;;;;;;;135.15;63.22;;;;;;;;;;5126183;27;20050;-82
2021/03/24 05:35:41;;;;;;;136.98;60.97;;;;;;;;;;5113734;27;20043;-84
2021/03/24 05:38:35;;;;;;;133.95;62.10;;;;;;;;;;5126854;27;20486;-83
2021/03/24 05:41:21;;;;;;;;;;;;;;;;;;5131239;27;20050;-83
2021/03/24 05:44:23;;;;;;;135.95;62.63;;;;;;;;;;5140173;27;19919;-82
2021/03/24 05:47:17;;;;;;;132.35;62.60;;;;;;;;;;5128000;27;20374;-83
2021/03/24 05:50:06;;;;;;;142.63;64.88;;;;;;;;;;5115557;27;20112;-79
2021/03/24 05:53:11;;;;;;;147.23;67.28;;;;;;;;;;5130740;27;20043;-79
2021/03/24 05:55:57;;;;;;;;;;;;;;;;;;5127856;27;20045;-77
2021/03/24 05:58:55;;;;;;;146.68;67.55;;;;;;;;;;5139366;27;20279;-87
2021/03/24 06:01:54;;;;;;;148.60;64.13;;;;;;;;;;5118765;28;20375;-87
2021/03/24 06:04:44;;;;;;;143.68;66.82;;;;;;;;;;5114183;28;20071;-86
2021/03/24 06:07:48;;;;;;;136.43;64.35;;;;;;;;;;5118271;28;20114;-86
2021/03/24 06:10:37;;;;;;;131.63;64.45;;;;;;;;;;5131725;28;20482;-86
2021/03/24 06:13:24;;;;;;;128.82;62.70;;;;;;;;;;5098466;28;20406;-87
2021/03/24 06:16:10;;;;;;;123.25;61.15;;;;;;;;;;5117050;28;20122;-86
2021/03/24 06:19:00;;;;;;;128.15;60.75;;;;;;;;;;5117816;28;20433;-83
2021/03/24 06:21:54;;;;;;;126.28;62.13;;;;;;;;;;5117464;28;20100;-86
2021/03/24 06:24:40;;;;;;;118.60;60.58;;;;;;;;;;5117827;28;20151;-84
2021/03/24 06:27:40;;;;;;;121.18;60.10;;;;;;;;;;5129369;28;20466;-75
2021/03/24 06:30:35;;;;;;;113.75;58.80;;;;;;;;;;5130868;28;20054;-72
2021/03/24 06:33:40;;;;;;;109.60;59.08;;;;;;;;;;5130154;28;20172;-85
2021/03/24 06:36:26;;;;;;;112.18;59.47;;;;;;;;;;5105875;28;20402;-84
2021/03/24 06:39:12;;;;;;;108.60;59.60;;;;;;;;;;5116409;28;20095;-84
2021/03/24 06:42:10;;;;;;;109.25;60.88;;;;;;;;;;5131757;28;20078;-84
2021/03/24 06:44:59;;;;;;;113.88;60.47;;;;;;;;;;5117028;28;20097;-84
2021/03/24 06:47:48;;;;;;;104.63;59.72;;;;;;;;;;5116462;27;20133;-84
2021/03/24 06:51:01;;;;;;;105.25;60.88;;;;;;;;;;5100549;28;20054;-83
2021/03/24 06:54:06;;;;;;;99.50;58.33;;;;;;;;;;5126476;27;20403;-85
2021/03/24 06:56:52;;;;;;;;;;;;;;;;;;5129198;27;20048;-84
2021/03/24 06:59:57;;;;;;;96.20;54.00;;;;;;;;;;5126021;27;19985;-84
2021/03/24 07:03:01;;;;;;;96.80;58.60;;;;;;;;;;5121172;27;20043;-83
2021/03/24 07:06:06;;;;;;;94.25;56.13;;;;;;;;;;5114959;28;20088;-84
2021/03/24 07:08:52;;;;;;;;;;;;;;;;;;5116573;27;20106;-82
2021/03/24 07:11:42;;;;;;;88.20;53.60;;;;;;;;;;5135066;27;19932;-82
2021/03/24 07:14:33;;;;;;;85.40;56.13;;;;;;;;;;5129789;27;20381;-83
2021/03/24 07:17:28;;;;;;;90.55;58.55;;;;;;;;;;5110752;27;20067;-82
2021/03/24 07:20:33;;;;;;;89.13;59.75;;;;;;;;;;5125640;27;20483;-83
2021/03/24 07:23:19;;;;;;;;;;;;;;;;;;5110686;27;20122;-82
2021/03/24 07:26:06;;;;;;;87.22;56.25;;;;;;;;;;5132297;27;20269;-83
2021/03/24 07:29:06;;;;;;;87.28;56.05;;;;;;;;;;5114052;28;20062;-82
2021/03/24 07:32:04;;;;;;;85.97;56.50;;;;;;;;;;5133034;27;20059;-80
2021/03/24 07:35:09;;;;;;;83.20;55.78;;;;;;;;;;5120781;27;20039;-81
2021/03/24 07:37:55;;;;;;;;;;;;;;;;;;5114065;28;20092;-82
2021/03/24 07:41:00;;;;;;;85.53;56.95;;;;;;;;;;5153223;27;21387;-82
2021/03/24 07:43:54;;;;;;;83.22;56.13;;;;;;;;;;5099827;27;20108;-81
2021/03/24 07:46:59;;;;;;;85.53;54.47;;;;;;;;;;5130600;27;20062;-83
2021/03/24 07:49:45;;;;;;;;;;;;;;;;;;5125031;27;20490;-82
2021/03/24 07:52:34;;;;;;;81.22;56.25;;;;;;;;;;5139033;27;20270;-84
2021/03/24 07:55:30;;;;;;;82.88;58.28;;;;;;;;;;5149236;27;20064;-83
2021/03/24 07:58:35;;;;;;;85.80;58.90;;;;;;;;;;5116596;27;20047;-77
2021/03/24 08:01:31;;;;;;;84.07;58.50;;;;;;;;;;5115883;27;20089;-85
2021/03/24 08:04:26;;;;;;;86.53;61.75;;;;;;;;;;5152885;27;20123;-86
2021/03/24 08:07:12;;;;;;;87.30;61.65;;;;;;;;;;5126456;27;20038;-82
2021/03/24 08:10:21;;;;;;;86.60;59.53;;;;;;;;;;5145879;27;20104;-83
2021/03/24 08:13:10;;;;;;;86.63;59.05;;;;;;;;;;5123224;27;20090;-82
2021/03/24 08:16:09;;;;;;;78.15;57.58;;;;;;;;;;5127196;27;20043;-80
2021/03/24 08:18:55;;;;;;;81.10;58.53;;;;;;;;;;5119537;27;20470;-83
2021/03/24 08:21:40;;;;;;;78.05;56.35;;;;;;;;;;5134330;27;20053;-79
2021/03/24 08:24:11;;;;;;;81.00;56.50;;;;;;;;;;5133002;27;20031;-81
2021/03/24 08:26:52;;;;;;;79.22;56.97;;;;;;;;;;5126451;27;20049;-81
2021/03/24 08:29:21;;;;;;;73.38;55.67;;;;;;;;;;5137265;27;20474;-79
2021/03/24 08:32:00;;;;;;;75.07;53.47;;;;;;;;;;5118784;27;20049;-76
2021/03/24 08:34:42;;;;;;;74.63;54.97;;;;;;;;;;5124118;27;20462;-74
2021/03/24 08:37:26;;;;;;;75.15;53.15;;;;;;;;;;5122562;27;20049;-79
2021/03/24 08:40:11;;;;;;;72.30;53.20;;;;;;;;;;5128918;27;20035;-73
2021/03/24 08:42:37;;;;;;;74.13;53.42;;;;;;;;;;5128484;27;20370;-73
2021/03/24 08:45:23;;;;;;;65.90;49.75;;;;;;;;;;5124275;27;20334;-75
2021/03/24 08:47:51;;;;;;;69.88;50.25;;;;;;;;;;5137977;27;20109;-76
2021/03/24 08:50:25;;;;;;;66.53;48.67;;;;;;;;;;5129557;27;20098;-76
2021/03/24 08:53:07;;;;;;;65.65;47.60;;;;;;;;;;5119605;27;20051;-75
2021/03/24 08:55:39;;;;;;;64.03;46.58;;;;;;;;;;5124423;27;20031;-75
2021/03/24 08:58:19;;;;;;;65.88;48.33;;;;;;;;;;5130502;27;20124;-76
2021/03/24 09:00:45;;;;;;;63.35;47.53;;;;;;;;;;5126147;27;20103;-77
2021/03/24 09:03:21;;;;;;;69.32;49.40;;;;;;;;;;5136460;27;20034;-77
2021/03/24 09:06:05;;;;;;;63.70;47.35;;;;;;;;;;5122467;27;20063;-75
2021/03/24 09:08:32;;;;;;;67.18;47.47;;;;;;;;;;5126784;27;20144;-77
2021/03/24 09:11:03;;;;;;;66.03;46.53;;;;;;;;;;5117283;27;20102;-75
2021/03/24 09:13:30;;;;;;;56.35;44.70;;;;;;;;;;5136589;27;20030;-75
2021/03/24 09:16:08;;;;;;;63.72;45.67;;;;;;;;;;5127132;27;20059;-76
2021/03/24 09:18:53;;;;;;;61.00;46.60;;;;;;;;;;5125148;27;20393;-76
2021/03/24 09:21:19;;;;;;;61.70;45.72;;;;;;;;;;5130650;27;20035;-79
2021/03/24 09:23:45;;;;;;;59.13;43.92;;;;;;;;;;5129704;27;20039;-73
2021/03/24 09:26:30;;;;;;;58.20;44.50;;;;;;;;;;5130279;27;20047;-74
2021/03/24 09:29:00;;;;;;;61.47;43.30;;;;;;;;;;5128080;27;20040;-74
2021/03/24 09:31:26;;;;;;;54.85;39.50;;;;;;;;;;5128664;27;20377;-76
2021/03/24 09:34:28;;;;;;;54.05;40.55;;;;;;;;;;5125221;27;20024;-76
2021/03/24 09:36:54;;;;;;;61.28;42.83;;;;;;;;;;5068001;28;20036;-74
2021/03/24 09:39:43;;;;;;;60.00;41.80;;;;;;;;;;5118131;27;20050;-78
2021/03/24 09:42:21;;;;;;;58.75;39.80;;;;;;;;;;5139631;27;20044;-74
2021/03/24 09:44:51;;;;;;;60.78;42.67;;;;;;;;;;5132217;27;20035;-75
2021/03/24 09:47:21;;;;;;;59.35;42.15;;;;;;;;;;5121584;27;20031;-72
2021/03/24 09:49:52;;;;;;;55.47;41.20;;;;;;;;;;5111287;28;20112;-73
2021/03/24 09:52:48;;;;;;;61.50;41.65;;;;;;;;;;5127071;27;20439;-75
2021/03/24 09:55:23;;;;;;;63.90;42.13;;;;;;;;;;5113680;27;20058;-74
2021/03/24 09:58:07;;;;;;;58.35;40.60;;;;;;;;;;5097539;28;20071;-78
2021/03/24 10:00:54;;;;;;;66.78;44.00;;;;;;;;;;5082502;28;20079;-77
2021/03/24 10:03:33;;;;;;;64.00;43.42;;;;;;;;;;5087111;28;20113;-76
2021/03/24 10:06:01;;;;;;;65.70;45.45;;;;;;;;;;5094497;28;20426;-76
2021/03/24 10:08:34;;;;;;;61.63;43.05;;;;;;;;;;5071729;28;20040;-79
2021/03/24 10:11:03;;;;;;;63.80;43.08;;;;;;;;;;5089590;28;20052;-76
2021/03/24 10:13:33;;;;;;;67.10;45.28;;;;;;;;;;5092616;28;20051;-74
2021/03/24 10:16:00;;;;;;;65.30;43.05;;;;;;;;;;5088538;28;20055;-74
2021/03/24 10:18:30;;;;;;;61.30;41.97;;;;;;;;;;5100488;28;20036;-73
2021/03/24 10:21:02;;;;;;;58.58;40.17;;;;;;;;;;5088662;28;20085;-78
2021/03/24 10:23:49;;;;;;;60.78;41.05;;;;;;;;;;5097240;28;20047;-81
2021/03/24 10:26:15;;;;;;;64.43;41.72;;;;;;;;;;5083372;28;20039;-80
2021/03/24 10:29:13;;;;;;;57.05;37.25;;;;;;;;;;5110129;27;20058;-77
2021/03/24 10:31:45;;;;;;;60.78;36.75;;;;;;;;;;5106595;27;20193;-85
2021/03/24 10:34:34;;;;;;;53.42;37.80;;;;;;;;;;5137727;27;20092;-86
2021/03/24 10:37:07;;;;;;;57.70;39.13;;;;;;;;;;5121482;27;20062;-83
2021/03/24 10:39:36;;;;;;;60.67;39.05;;;;;;;;;;5130346;27;20365;-80
2021/03/24 10:42:17;;;;;;;52.90;37.72;;;;;;;;;;5128246;27;20046;-82
2021/03/24 10:44:52;;;;;;;54.75;37.67;;;;;;;;;;5130588;27;20035;-81
2021/03/24 10:47:21;;;;;;;53.58;36.92;;;;;;;;;;5112516;27;20044;-82
2021/03/24 10:49:47;;;;;;;54.33;36.13;;;;;;;;;;5117339;27;20432;-80
2021/03/24 10:52:17;;;;;;;54.33;37.42;;;;;;;;;;5128396;27;20054;-72
2021/03/24 10:54:44;;;;;;;49.30;34.63;;;;;;;;;;5128194;27;20035;-77
2021/03/24 10:57:24;;;;;;;52.13;34.63;;;;;;;;;;5131642;27;20042;-76
2021/03/24 11:00:08;;;;;;;47.45;34.22;;;;;;;;;;5127131;27;20050;-76
2021/03/24 11:02:38;;;;;;;46.85;32.63;;;;;;;;;;5131035;27;20047;-76
2021/03/24 11:05:13;;;;;;;47.30;32.53;;;;;;;;;;5119527;27;20470;-76
2021/03/24 11:07:52;;;;;;;51.25;32.75;;;;;;;;;;5125846;27;20343;-76
2021/03/24 11:10:27;;;;;;;47.15;31.02;;;;;;;;;;5125625;27;20451;-76
2021/03/24 11:13:02;;;;;;;41.72;28.52;;;;;;;;;;5127072;27;20739;-77
2021/03/24 11:15:45;;;;;;;41.42;27.95;;;;;;;;;;5130488;27;20143;-76
2021/03/24 11:18:13;;;;;;;41.25;27.55;;;;;;;;;;5131128;27;20047;-75
2021/03/24 11:20:42;;;;;;;43.15;28.48;;;;;;;;;;5132289;27;20031;-76
2021/03/24 11:23:10;;;;;;;41.83;27.83;;;;;;;;;;5131674;27;20039;-76
2021/03/24 11:25:45;;;;;;;42.58;28.40;;;;;;;;;;5131888;27;20043;-77
2021/03/24 11:28:24;;;;;;;40.15;27.77;;;;;;;;;;5130404;27;20043;-76
2021/03/24 11:31:10;;;;;;;36.78;26.23;;;;;;;;;;5113247;27;20116;-76
2021/03/24 11:33:39;;;;;;;45.47;27.40;;;;;;;;;;5151148;27;20036;-74
2021/03/24 11:36:17;;;;;;;41.15;26.83;;;;;;;;;;5127216;27;20103;-75
2021/03/24 11:38:43;;;;;;;43.03;27.20;;;;;;;;;;5129282;27;20482;-75
2021/03/24 11:41:14;;;;;;;40.00;25.88;;;;;;;;;;5134573;27;20043;-79
2021/03/24 11:43:44;;;;;;;36.40;24.75;;;;;;;;;;5124046;27;20036;-74
2021/03/24 11:46:13;;;;;;;35.67;25.77;;;;;;;;;;5133233;27;20454;-72
2021/03/24 11:48:46;;;;;;;37.85;26.10;;;;;;;;;;5131795;27;20047;-72
2021/03/24 11:51:31;;;;;;;39.77;26.47;;;;;;;;;;5133322;27;20472;-74
2021/03/24 11:54:02;;;;;;;46.28;27.98;;;;;;;;;;5122844;27;20297;-72
2021/03/24 11:56:31;;;;;;;39.47;25.80;;;;;;;;;;5134926;27;20046;-71
2021/03/24 11:59:18;;;;;;;39.88;25.70;;;;;;;;;;5132607;27;20045;-73
2021/03/24 12:01:53;;;;;;;40.15;25.90;;;;;;;;;;5122033;27;20103;-72
2021/03/24 12:04:37;;;;;;;38.22;25.83;;;;;;;;;;5120914;27;20036;-71
2021/03/24 12:07:13;;;;;;;40.20;25.33;;;;;;;;;;5121353;27;20123;-72
2021/03/24 12:09:40;;;;;;;35.85;24.15;;;;;;;;;;5124133;27;20036;-73
2021/03/24 12:12:07;;;;;;;33.78;23.17;;;;;;;;;;5130793;27;20043;-74
2021/03/24 12:14:33;;;;;;;33.70;23.30;;;;;;;;;;5123231;27;20039;-71
2021/03/24 12:17:00;;;;;;;35.17;23.58;;;;;;;;;;5127114;27;20041;-72
2021/03/24 12:19:35;;;;;;;37.25;24.52;;;;;;;;;;5125461;27;20367;-71
2021/03/24 12:22:20;;;;;;;32.92;23.90;;;;;;;;;;5129881;27;20058;-71
2021/03/24 12:24:48;;;;;;;36.40;25.00;;;;;;;;;;5121643;27;20406;-71
2021/03/24 12:27:15;;;;;;;35.08;22.73;;;;;;;;;;5124733;27;20042;-71
2021/03/24 12:29:43;;;;;;;31.25;21.48;;;;;;;;;;5123633;27;20048;-71
2021/03/24 12:32:21;;;;;;;32.78;22.95;;;;;;;;;;5127645;27;20316;-70
2021/03/24 12:34:47;;;;;;;33.95;23.15;;;;;;;;;;5125991;27;20429;-71
2021/03/24 12:37:28;;;;;;;29.85;21.52;;;;;;;;;;5131309;27;20054;-71
2021/03/24 12:39:55;;;;;;;27.50;20.55;;;;;;;;;;5113438;27;20043;-73
2021/03/24 12:42:26;;;;;;;32.40;21.30;;;;;;;;;;5127303;27;20074;-72
2021/03/24 12:44:52;;;;;;;35.15;20.50;;;;;;;;;;5137369;27;20042;-72
2021/03/24 12:47:27;;;;;;;28.05;19.15;;;;;;;;;;5128433;27;20082;-72
2021/03/24 12:50:23;;;;;;;35.67;24.08;;;;;;;;;;5121486;27;20439;-73
2021/03/24 12:52:55;;;;;;;36.58;23.67;;;;;;;;;;5107301;27;20055;-71
2021/03/24 12:55:22;;;;;;;30.17;21.63;;;;;;;;;;5150693;27;20062;-71
2021/03/24 12:57:57;;;;;;;29.75;21.33;;;;;;;;;;5131469;27;20039;-71
2021/03/24 13:00:31;;;;;;;33.17;21.83;;;;;;;;;;5132773;27;20033;-72
2021/03/24 13:03:06;;;;;;;36.22;20.70;;;;;;;;;;5121168;27;20070;-71
2021/03/24 13:05:43;;;;;;;28.92;18.45;;;;;;;;;;5130079;27;20042;-72
2021/03/24 13:08:12;;;;;;;32.58;20.77;;;;;;;;;;5128957;27;20509;-72
2021/03/24 13:10:50;;;;;;;30.83;20.83;;;;;;;;;;5127495;27;20122;-73
2021/03/24 13:13:16;;;;;;;32.85;22.80;;;;;;;;;;5121090;27;20079;-72
2021/03/24 13:15:49;;;;;;;35.55;23.45;;;;;;;;;;5123815;27;20134;-72
2021/03/24 13:18:26;;;;;;;38.67;25.20;;;;;;;;;;5122013;27;20123;-71
2021/03/24 13:20:53;;;;;;;34.38;23.55;;;;;;;;;;5126251;27;20269;-73
2021/03/24 13:23:27;;;;;;;38.88;24.27;;;;;;;;;;5118258;27;20047;-72
2021/03/24 13:25:55;;;;;;;36.65;24.98;;;;;;;;;;5130177;27;20043;-71
2021/03/24 13:28:25;;;;;;;36.50;24.80;;;;;;;;;;5146680;27;20041;-72
2021/03/24 13:30:55;;;;;;;36.85;25.20;;;;;;;;;;5133389;27;20378;-71
2021/03/24 13:33:28;;;;;;;42.05;26.63;;;;;;;;;;5124654;27;20122;-71
2021/03/24 13:35:56;;;;;;;40.38;26.48;;;;;;;;;;5126803;27;20028;-70
2021/03/24 13:38:35;;;;;;;43.17;27.38;;;;;;;;;;5128622;27;20054;-73
2021/03/24 13:41:01;;;;;;;39.05;27.33;;;;;;;;;;5128065;27;20027;-69
2021/03/24 13:43:35;;;;;;;38.45;27.40;;;;;;;;;;5132382;27;20080;-69
2021/03/24 13:46:04;;;;;;;44.80;27.02;;;;;;;;;;5124356;27;20039;-71
2021/03/24 13:48:57;;;;;;;43.10;26.08;;;;;;;;;;5135083;27;20050;-69
2021/03/24 13:51:26;;;;;;;40.95;27.73;;;;;;;;;;5115600;27;20473;-71
2021/03/24 13:53:58;;;;;;;41.60;27.27;;;;;;;;;;5130653;27;20070;-69
2021/03/24 13:56:50;;;;;;;39.92;26.83;;;;;;;;;;5131647;27;20463;-70
2021/03/24 13:59:16;;;;;;;40.97;26.10;;;;;;;;;;5125269;28;20035;-69
2021/03/24 14:02:01;;;;;;;38.00;27.13;;;;;;;;;;5136172;27;20038;-69
2021/03/24 14:04:40;;;;;;;40.13;26.75;;;;;;;;;;5136683;27;20091;-70
2021/03/24 14:07:10;;;;;;;38.15;26.23;;;;;;;;;;5135336;27;20043;-69
2021/03/24 14:09:40;;;;;;;37.90;25.55;;;;;;;;;;5127512;28;20071;-69
2021/03/24 14:12:15;;;;;;;38.97;26.27;;;;;;;;;;5120276;27;20038;-69
2021/03/24 14:14:53;;;;;;;37.17;26.50;;;;;;;;;;5116623;28;20050;-68
2021/03/24 14:17:38;;;;;;;39.53;26.45;;;;;;;;;;5120984;27;20035;-68
2021/03/24 14:20:22;;;;;;;41.88;27.23;;;;;;;;;;5117912;27;20115;-68
2021/03/24 14:22:55;;;;;;;38.63;27.20;;;;;;;;;;5127246;28;20123;-68
2021/03/24 14:25:27;;;;;;;37.17;27.33;;;;;;;;;;5120374;27;20027;-69
2021/03/24 14:27:53;;;;;;;43.17;28.85;;;;;;;;;;5122047;27;20047;-69
2021/03/24 14:30:32;;;;;;;42.80;29.30;;;;;;;;;;5124418;28;20130;-69
2021/03/24 14:33:16;;;;;;;39.83;28.98;;;;;;;;;;5117594;27;20108;-69
2021/03/24 14:35:55;;;;;;;48.97;29.05;;;;;;;;;;5132106;27;20034;-69
2021/03/24 14:38:34;;;;;;;43.20;28.48;;;;;;;;;;5125254;27;20035;-69
2021/03/24 14:41:03;;;;;;;40.80;27.73;;;;;;;;;;5117346;27;20035;-69
2021/03/24 14:43:42;;;;;;;38.08;26.58;;;;;;;;;;5130428;27;20419;-69
2021/03/24 14:46:26;;;;;;;43.65;28.58;;;;;;;;;;5127549;27;20040;-71
2021/03/24 14:49:02;;;;;;;37.53;26.65;;;;;;;;;;5131801;27;20047;-70
2021/03/24 14:51:30;;;;;;;42.22;23.95;;;;;;;;;;5125820;27;20043;-68
2021/03/24 14:53:56;;;;;;;38.20;24.23;;;;;;;;;;5132159;27;20036;-71
2021/03/24 14:56:52;;;;;;;39.42;25.65;;;;;;;;;;5119728;28;20508;-73
2021/03/24 14:59:31;;;;;;;39.38;23.70;;;;;;;;;;5081696;28;20060;-70
2021/03/24 15:02:16;;;;;;;34.90;24.48;;;;;;;;;;5122954;27;20130;-70
2021/03/24 15:04:43;;;;;;;36.17;24.08;;;;;;;;;;5130790;27;20614;-70
2021/03/24 15:07:11;;;;;;;39.20;26.08;;;;;;;;;;5121683;27;20120;-71
2021/03/24 15:09:39;;;;;;;41.03;27.38;;;;;;;;;;5129560;27;20031;-69
2021/03/24 15:12:14;;;;;;;41.53;27.77;;;;;;;;;;5130861;27;20138;-70
2021/03/24 15:14:48;;;;;;;40.00;26.90;;;;;;;;;;5129258;27;20035;-71
2021/03/24 15:17:33;;;;;;;39.17;26.65;;;;;;;;;;5128311;27;20058;-70
2021/03/24 15:20:08;;;;;;;39.30;27.27;;;;;;;;;;5127520;27;20479;-68
2021/03/24 15:22:38;;;;;;;43.15;29.90;;;;;;;;;;5124288;27;20094;-71
2021/03/24 15:25:15;;;;;;;44.70;29.73;;;;;;;;;;5127630;27;20055;-72
2021/03/24 15:27:57;;;;;;;44.80;29.67;;;;;;;;;;5130249;27;20137;-70
2021/03/24 15:30:33;;;;;;;47.22;30.35;;;;;;;;;;5124465;27;20119;-70
2021/03/24 15:33:05;;;;;;;48.63;30.05;;;;;;;;;;5124962;27;20065;-71
2021/03/24 15:35:46;;;;;;;50.88;32.20;;;;;;;;;;5129133;27;20063;-69
2021/03/24 15:38:33;;;;;;;46.75;31.45;;;;;;;;;;5128965;27;20425;-69
2021/03/24 15:41:05;;;;;;;41.85;30.23;;;;;;;;;;5130174;27;20449;-69
2021/03/24 15:43:43;;;;;;;43.22;29.10;;;;;;;;;;5127941;27;20055;-69
2021/03/24 15:46:18;;;;;;;47.90;29.85;;;;;;;;;;5124962;27;20035;-69
2021/03/24 15:48:52;;;;;;;42.00;29.33;;;;;;;;;;5126572;27;20425;-69